Ardara, Pennsylvania
Current Conditions -  °F | °C
As of 8:53 AM on Friday 28 Nov 2014 (Local Time) from KAGC Reporting Station
Overcast Overcast  
Wind Chill: 14°   Ceiling: 4500
Heat Index: 24°   Visibility: 10mi
Dew Point: 10°   Wind: 10mph
Humidity: 55%   Direction: 330°NNW
Pressure: 30.3"   Gusts: NA
Location:  40.36°N, 79.73°W
Report Text: KAGC 281353Z 33009KT 10SM OVC045 M04/M12 A3030 RMK AO2 SLP283 T10441122
Loading
Personal Weather Stations






























Interactive Weather Map New forecast layout! Learn more

10-Day Weather Forecast

Advertisements
Track Severe Weather on mobile